Time;durP1;ratioP1;P1;durP2;ratioP2;P2;SDS_P1;SDS_P2;PMS_P1;PMS_P2;Temp;Humidity;BMP_temperature;BMP_pressure;BME280_temperature;BME280_humidity;BME280_pressure;Samples;Min_cycle;Max_cycle;Signal;HPM_P1;HPM_P2
2021/05/21 00:01:10;;;;;;;2.90;2.70;;;;;;;;;;5026368;28;20215;-73
2021/05/21 00:03:36;;;;;;;2.87;2.57;;;;;;;;;;5016770;28;20249;-74
2021/05/21 00:06:02;;;;;;;3.30;2.60;;;;;;;;;;5021502;28;20184;-73
2021/05/21 00:08:28;;;;;;;2.33;2.23;;;;;;;;;;5020049;28;20204;-74
2021/05/21 00:10:54;;;;;;;3.10;2.60;;;;;;;;;;5022318;28;20209;-74
2021/05/21 00:13:20;;;;;;;2.57;2.37;;;;;;;;;;5019882;28;20342;-74
2021/05/21 00:15:46;;;;;;;3.23;2.33;;;;;;;;;;5030078;28;20188;-74
2021/05/21 00:18:12;;;;;;;2.57;2.37;;;;;;;;;;5029629;28;20562;-74
2021/05/21 00:20:38;;;;;;;2.07;1.83;;;;;;;;;;5026339;28;20712;-74
2021/05/21 00:23:04;;;;;;;2.07;1.97;;;;;;;;;;5025654;28;20191;-74
2021/05/21 00:25:30;;;;;;;3.27;2.10;;;;;;;;;;5023108;28;20192;-74
2021/05/21 00:27:56;;;;;;;2.20;2.10;;;;;;;;;;5029954;28;20261;-74
2021/05/21 00:30:22;;;;;;;5.37;2.07;;;;;;;;;;5028544;28;20219;-74
2021/05/21 00:32:48;;;;;;;2.50;2.30;;;;;;;;;;5026411;28;20220;-74
2021/05/21 00:35:14;;;;;;;2.30;2.10;;;;;;;;;;5021097;28;20218;-73
2021/05/21 00:37:40;;;;;;;2.50;2.00;;;;;;;;;;5025484;28;20654;-74
2021/05/21 00:40:06;;;;;;;1.90;1.80;;;;;;;;;;5026810;28;20227;-74
2021/05/21 00:42:33;;;;;;;1.90;1.80;;;;;;;;;;5027634;28;20621;-73
2021/05/21 00:44:59;;;;;;;2.27;1.90;;;;;;;;;;5020033;28;20189;-73
2021/05/21 00:47:25;;;;;;;2.27;2.03;;;;;;;;;;5027250;28;20672;-75
2021/05/21 00:49:51;;;;;;;2.50;2.23;;;;;;;;;;5026767;28;20216;-74
2021/05/21 00:52:18;;;;;;;4.93;1.90;;;;;;;;;;5023318;28;20312;-74
2021/05/21 00:54:45;;;;;;;1.90;1.80;;;;;;;;;;5024020;28;20193;-74
2021/05/21 00:57:11;;;;;;;2.50;1.90;;;;;;;;;;5021961;28;20193;-74
2021/05/21 00:59:37;;;;;;;2.43;2.23;;;;;;;;;;5024356;28;20188;-74
2021/05/21 01:02:04;;;;;;;2.20;2.07;;;;;;;;;;5018245;28;20239;-74
2021/05/21 01:04:30;;;;;;;2.37;1.57;;;;;;;;;;5021465;28;20187;-74
2021/05/21 01:06:56;;;;;;;2.17;1.93;;;;;;;;;;5026585;28;20191;-74
2021/05/21 01:09:22;;;;;;;1.97;1.87;;;;;;;;;;5026167;28;20695;-74
2021/05/21 01:11:48;;;;;;;2.87;2.23;;;;;;;;;;5028695;28;20722;-74
2021/05/21 01:14:14;;;;;;;1.70;1.60;;;;;;;;;;5023351;28;20223;-74
2021/05/21 01:16:40;;;;;;;3.70;2.00;;;;;;;;;;5025590;28;20180;-74
2021/05/21 01:19:06;;;;;;;2.10;2.00;;;;;;;;;;5025797;28;20196;-74
2021/05/21 01:21:35;;;;;;;1.60;1.50;;;;;;;;;;5024440;28;20684;-74
2021/05/21 01:24:01;;;;;;;2.00;1.80;;;;;;;;;;5025526;28;20191;-74
2021/05/21 01:26:27;;;;;;;2.10;1.90;;;;;;;;;;5024650;28;20172;-74
2021/05/21 01:28:53;;;;;;;2.00;1.90;;;;;;;;;;5026880;28;20696;-74
2021/05/21 01:31:19;;;;;;;1.80;1.70;;;;;;;;;;5023754;28;20256;-74
2021/05/21 01:33:45;;;;;;;1.90;1.80;;;;;;;;;;5022529;28;20215;-74
2021/05/21 01:36:11;;;;;;;2.20;2.00;;;;;;;;;;5025539;28;20569;-74
2021/05/21 01:38:37;;;;;;;3.03;1.93;;;;;;;;;;5024062;28;20197;-74
2021/05/21 01:41:04;;;;;;;1.93;1.80;;;;;;;;;;5023514;28;20207;-74
2021/05/21 01:43:31;;;;;;;2.77;2.20;;;;;;;;;;5030124;28;20291;-74
2021/05/21 01:45:57;;;;;;;2.67;1.93;;;;;;;;;;5019326;28;20678;-74
2021/05/21 01:48:23;;;;;;;3.57;1.63;;;;;;;;;;5025595;28;20328;-74
2021/05/21 01:50:49;;;;;;;1.90;1.80;;;;;;;;;;5030398;28;20203;-74
2021/05/21 01:53:15;;;;;;;3.10;2.00;;;;;;;;;;5025262;28;20687;-74
2021/05/21 01:55:49;;;;;;;2.00;1.80;;;;;;;;;;5024511;28;20282;-74
2021/05/21 01:58:15;;;;;;;2.00;1.80;;;;;;;;;;5022766;28;20184;-74
2021/05/21 02:00:41;;;;;;;2.63;2.13;;;;;;;;;;5028670;28;20207;-74
2021/05/21 02:03:07;;;;;;;2.10;1.90;;;;;;;;;;5026521;28;20197;-74
2021/05/21 02:05:33;;;;;;;1.80;1.70;;;;;;;;;;5025031;28;20561;-74
2021/05/21 02:07:59;;;;;;;1.83;1.67;;;;;;;;;;5018683;28;20189;-74
2021/05/21 02:10:25;;;;;;;2.43;1.80;;;;;;;;;;5023577;28;20300;-74
2021/05/21 02:12:51;;;;;;;2.57;1.97;;;;;;;;;;5024571;28;20219;-74
2021/05/21 02:15:17;;;;;;;1.63;1.53;;;;;;;;;;5019360;28;20192;-74
2021/05/21 02:17:43;;;;;;;1.83;1.73;;;;;;;;;;5024356;28;20192;-74
2021/05/21 02:20:10;;;;;;;2.30;2.10;;;;;;;;;;5025047;28;20207;-74
2021/05/21 02:22:39;;;;;;;2.38;2.17;;;;;;;;;;5022448;28;20187;-74
2021/05/21 02:25:05;;;;;;;2.13;1.90;;;;;;;;;;5017180;28;20256;-74
2021/05/21 02:27:31;;;;;;;4.33;1.80;;;;;;;;;;5021623;28;20187;-74
2021/05/21 02:29:58;;;;;;;2.30;2.00;;;;;;;;;;5029400;28;20764;-74
2021/05/21 02:32:24;;;;;;;3.07;1.73;;;;;;;;;;5026120;28;20211;-74
2021/05/21 02:34:50;;;;;;;4.50;2.17;;;;;;;;;;5021991;28;20193;-74
2021/05/21 02:37:16;;;;;;;1.87;1.77;;;;;;;;;;5029400;28;20199;-75
2021/05/21 02:39:42;;;;;;;2.03;1.80;;;;;;;;;;5023855;28;20215;-74
2021/05/21 02:42:09;;;;;;;1.70;1.60;;;;;;;;;;5025742;28;20184;-74
2021/05/21 02:44:35;;;;;;;1.83;1.73;;;;;;;;;;5025268;28;20192;-74
2021/05/21 02:47:01;;;;;;;2.27;2.07;;;;;;;;;;5022927;28;20616;-74
2021/05/21 02:49:29;;;;;;;1.83;1.67;;;;;;;;;;5023466;28;20681;-74
2021/05/21 02:51:55;;;;;;;1.87;1.77;;;;;;;;;;5027271;28;20188;-74
2021/05/21 02:54:22;;;;;;;1.60;1.50;;;;;;;;;;5018459;28;20213;-74
2021/05/21 02:56:48;;;;;;;2.13;1.87;;;;;;;;;;5027657;28;20271;-73
2021/05/21 02:59:14;;;;;;;1.87;1.77;;;;;;;;;;5022721;28;20286;-74
2021/05/21 03:01:41;;;;;;;2.33;2.10;;;;;;;;;;5022670;28;20250;-74
2021/05/21 03:04:07;;;;;;;2.30;2.13;;;;;;;;;;5024944;28;20193;-74
2021/05/21 03:06:33;;;;;;;1.90;1.80;;;;;;;;;;5024699;28;20201;-74
2021/05/21 03:08:59;;;;;;;2.07;1.97;;;;;;;;;;5021456;28;20200;-74
2021/05/21 03:11:25;;;;;;;2.07;1.97;;;;;;;;;;5026606;28;20291;-74
2021/05/21 03:13:51;;;;;;;2.63;2.43;;;;;;;;;;5025191;28;20683;-74
2021/05/21 03:16:16;;;;;;;2.57;2.37;;;;;;;;;;5026648;28;20238;-74
2021/05/21 03:18:42;;;;;;;2.70;2.50;;;;;;;;;;5033053;28;20176;-74
2021/05/21 03:21:08;;;;;;;2.50;2.30;;;;;;;;;;5021590;28;20628;-74
2021/05/21 03:23:35;;;;;;;2.43;2.23;;;;;;;;;;5023105;28;20204;-74
2021/05/21 03:26:01;;;;;;;3.63;2.40;;;;;;;;;;5019677;28;20699;-74
2021/05/21 03:28:27;;;;;;;2.00;1.73;;;;;;;;;;5013994;28;20262;-74
2021/05/21 03:30:53;;;;;;;3.00;2.27;;;;;;;;;;5020823;28;20711;-74
2021/05/21 03:33:19;;;;;;;3.43;2.30;;;;;;;;;;5022503;28;20707;-74
2021/05/21 03:35:45;;;;;;;2.30;2.10;;;;;;;;;;5021654;28;20184;-74
2021/05/21 03:38:12;;;;;;;2.10;1.77;;;;;;;;;;5018687;28;20236;-74
2021/05/21 03:40:39;;;;;;;1.80;1.70;;;;;;;;;;5016313;28;20211;-74
2021/05/21 03:43:05;;;;;;;1.70;1.60;;;;;;;;;;5016621;28;20184;-74
2021/05/21 03:45:32;;;;;;;2.40;1.80;;;;;;;;;;5021397;28;20193;-74
2021/05/21 03:47:58;;;;;;;1.57;1.47;;;;;;;;;;5027203;28;20212;-74
2021/05/21 03:50:24;;;;;;;2.20;1.70;;;;;;;;;;5019739;28;20675;-74
2021/05/21 03:52:50;;;;;;;2.00;1.80;;;;;;;;;;5024870;28;20717;-74
2021/05/21 03:55:17;;;;;;;1.80;1.70;;;;;;;;;;5020098;28;20192;-74
2021/05/21 03:57:43;;;;;;;1.83;1.60;;;;;;;;;;5024384;28;20193;-74
2021/05/21 04:00:10;;;;;;;2.03;1.77;;;;;;;;;;5025027;28;20240;-74
2021/05/21 04:02:37;;;;;;;2.73;1.60;;;;;;;;;;5027334;28;20243;-74
2021/05/21 04:05:03;;;;;;;1.77;1.37;;;;;;;;;;5018896;28;20652;-74
2021/05/21 04:07:29;;;;;;;3.63;1.70;;;;;;;;;;5024076;28;20181;-74
2021/05/21 04:09:55;;;;;;;1.93;1.70;;;;;;;;;;5023086;28;20202;-75
2021/05/21 04:12:21;;;;;;;2.30;1.70;;;;;;;;;;5028996;28;20192;-74
2021/05/21 04:14:48;;;;;;;1.90;1.70;;;;;;;;;;5030856;28;20179;-74
2021/05/21 04:17:14;;;;;;;2.77;1.60;;;;;;;;;;5024016;28;20189;-74
2021/05/21 04:19:40;;;;;;;1.60;1.50;;;;;;;;;;5021470;28;20188;-74
2021/05/21 04:22:06;;;;;;;1.60;1.50;;;;;;;;;;5021053;28;20191;-74
2021/05/21 04:24:32;;;;;;;2.13;1.60;;;;;;;;;;5020883;28;20560;-74
2021/05/21 04:26:58;;;;;;;1.70;1.60;;;;;;;;;;5023816;28;20180;-74
2021/05/21 04:29:24;;;;;;;1.80;1.60;;;;;;;;;;5029743;28;20271;-74
2021/05/21 04:31:50;;;;;;;2.93;1.57;;;;;;;;;;5037571;28;20216;-73
2021/05/21 04:34:16;;;;;;;1.57;1.47;;;;;;;;;;5016643;28;20220;-73
2021/05/21 04:36:42;;;;;;;2.03;1.83;;;;;;;;;;5024522;28;20615;-73
2021/05/21 04:39:08;;;;;;;2.77;1.30;;;;;;;;;;5024655;28;20275;-73
2021/05/21 04:41:34;;;;;;;1.50;1.37;;;;;;;;;;5026710;28;20283;-73
2021/05/21 04:44:00;;;;;;;2.00;1.80;;;;;;;;;;5021618;28;20262;-73
2021/05/21 04:46:26;;;;;;;2.07;1.40;;;;;;;;;;5024834;28;20192;-74
2021/05/21 04:48:52;;;;;;;1.60;1.50;;;;;;;;;;5014863;28;20580;-73
2021/05/21 04:51:17;;;;;;;1.60;1.50;;;;;;;;;;5017300;28;20262;-73
2021/05/21 04:53:44;;;;;;;2.03;1.70;;;;;;;;;;5024010;28;20593;-73
2021/05/21 04:56:12;;;;;;;1.73;1.63;;;;;;;;;;5027623;28;20189;-73
2021/05/21 04:58:38;;;;;;;1.70;1.57;;;;;;;;;;5028590;28;20223;-73
2021/05/21 05:01:04;;;;;;;1.93;1.60;;;;;;;;;;5026182;28;20217;-73
2021/05/21 05:03:30;;;;;;;3.23;2.07;;;;;;;;;;5025841;28;20601;-73
2021/05/21 05:05:57;;;;;;;2.00;1.70;;;;;;;;;;5026682;28;20222;-73
2021/05/21 05:08:23;;;;;;;2.00;1.47;;;;;;;;;;5024700;28;20755;-74
2021/05/21 05:10:49;;;;;;;2.07;1.70;;;;;;;;;;5022462;28;20248;-74
2021/05/21 05:13:18;;;;;;;1.87;1.67;;;;;;;;;;5022113;28;20212;-74
2021/05/21 05:15:44;;;;;;;2.40;1.60;;;;;;;;;;5028999;28;20276;-73
2021/05/21 05:18:11;;;;;;;1.98;1.63;;;;;;;;;;5022506;28;20263;-74
2021/05/21 05:20:37;;;;;;;2.63;1.60;;;;;;;;;;5019354;28;20214;-74
2021/05/21 05:23:03;;;;;;;1.80;1.70;;;;;;;;;;5026773;28;20276;-73
2021/05/21 05:25:30;;;;;;;1.95;1.50;;;;;;;;;;5026822;28;20196;-74
2021/05/21 05:27:56;;;;;;;1.90;1.80;;;;;;;;;;5020746;28;20201;-73
2021/05/21 05:30:22;;;;;;;2.65;1.52;;;;;;;;;;5021049;28;20249;-74
2021/05/21 05:32:48;;;;;;;1.60;1.50;;;;;;;;;;5027052;28;20303;-73
2021/05/21 05:35:14;;;;;;;1.37;1.20;;;;;;;;;;5020462;28;20192;-74
2021/05/21 05:37:41;;;;;;;2.83;1.47;;;;;;;;;;5025402;28;20187;-73
2021/05/21 05:40:07;;;;;;;2.85;1.50;;;;;;;;;;5020707;28;21750;-74
2021/05/21 05:42:34;;;;;;;2.50;1.40;;;;;;;;;;5020877;28;20187;-74
2021/05/21 05:45:00;;;;;;;2.42;1.50;;;;;;;;;;5022508;28;20587;-74
2021/05/21 05:47:26;;;;;;;1.95;1.70;;;;;;;;;;5023912;28;20271;-74
2021/05/21 05:49:52;;;;;;;2.38;1.80;;;;;;;;;;5024014;28;20215;-74
2021/05/21 05:52:18;;;;;;;2.25;1.70;;;;;;;;;;5025983;28;20181;-74
2021/05/21 05:54:44;;;;;;;1.65;1.50;;;;;;;;;;5022249;28;20220;-74
2021/05/21 05:57:10;;;;;;;6.70;1.80;;;;;;;;;;5020356;28;20184;-73
2021/05/21 05:59:38;;;;;;;1.42;1.33;;;;;;;;;;5025834;28;20187;-73
2021/05/21 06:02:04;;;;;;;5.53;1.75;;;;;;;;;;5024207;28;20180;-74
2021/05/21 06:04:30;;;;;;;4.25;1.83;;;;;;;;;;5021071;28;20202;-74
2021/05/21 06:06:56;;;;;;;2.42;1.52;;;;;;;;;;5028503;28;20878;-74
2021/05/21 06:09:22;;;;;;;1.63;1.50;;;;;;;;;;5021779;28;20193;-73
2021/05/21 06:11:48;;;;;;;1.73;1.63;;;;;;;;;;5018684;28;20398;-74
2021/05/21 06:14:14;;;;;;;4.53;1.70;;;;;;;;;;5037907;28;20299;-74
2021/05/21 06:16:42;;;;;;;2.17;1.58;;;;;;;;;;5020608;28;20703;-74
2021/05/21 06:19:08;;;;;;;5.00;1.95;;;;;;;;;;5022421;28;20189;-73
2021/05/21 06:21:34;;;;;;;2.00;1.80;;;;;;;;;;5020123;28;20204;-74
2021/05/21 06:24:00;;;;;;;4.28;2.03;;;;;;;;;;5025802;28;20207;-73
2021/05/21 06:26:37;;;;;;;2.05;1.25;;;;;;;;;;5030751;28;20663;-74
2021/05/21 06:29:03;;;;;;;4.05;1.73;;;;;;;;;;5025558;28;20257;-73
2021/05/21 06:31:29;;;;;;;2.08;1.48;;;;;;;;;;5021581;28;20212;-74
2021/05/21 06:33:55;;;;;;;2.67;1.67;;;;;;;;;;5027758;28;20207;-74
2021/05/21 06:36:21;;;;;;;4.07;1.63;;;;;;;;;;5024563;28;20221;-74
2021/05/21 06:38:47;;;;;;;3.47;1.40;;;;;;;;;;5018001;28;20173;-74
2021/05/21 06:41:13;;;;;;;4.00;1.90;;;;;;;;;;5023207;28;20237;-74
2021/05/21 06:43:39;;;;;;;1.75;1.65;;;;;;;;;;5020521;28;20612;-74
2021/05/21 06:46:06;;;;;;;7.20;1.95;;;;;;;;;;5019593;28;20184;-74
2021/05/21 06:48:32;;;;;;;5.10;1.73;;;;;;;;;;5020210;28;20219;-74
2021/05/21 06:50:59;;;;;;;4.15;1.88;;;;;;;;;;5023904;28;20201;-74
2021/05/21 06:53:26;;;;;;;1.50;1.40;;;;;;;;;;5029271;28;20753;-73
2021/05/21 06:55:52;;;;;;;3.22;1.50;;;;;;;;;;5027106;28;20723;-74
2021/05/21 06:58:19;;;;;;;3.75;1.48;;;;;;;;;;5026165;28;20729;-74
2021/05/21 07:00:49;;;;;;;1.65;1.50;;;;;;;;;;5022401;28;20199;-74
2021/05/21 07:03:15;;;;;;;2.63;1.60;;;;;;;;;;5025038;28;20191;-73
2021/05/21 07:05:43;;;;;;;2.70;1.40;;;;;;;;;;5023574;28;20207;-74
2021/05/21 07:08:09;;;;;;;2.28;1.50;;;;;;;;;;5027210;28;20193;-74
2021/05/21 07:10:35;;;;;;;5.45;1.50;;;;;;;;;;5021447;28;20226;-73
2021/05/21 07:13:08;;;;;;;2.00;1.40;;;;;;;;;;5029610;28;20668;-74
2021/05/21 07:15:34;;;;;;;2.38;1.63;;;;;;;;;;5027005;28;20181;-74
2021/05/21 07:18:00;;;;;;;1.45;1.33;;;;;;;;;;5029707;28;20229;-73
2021/05/21 07:20:26;;;;;;;3.08;1.65;;;;;;;;;;5022103;28;20208;-74
2021/05/21 07:22:52;;;;;;;3.10;1.48;;;;;;;;;;5024725;28;20230;-74
2021/05/21 07:25:18;;;;;;;2.70;1.42;;;;;;;;;;5026495;28;20195;-73
2021/05/21 07:27:44;;;;;;;1.50;1.40;;;;;;;;;;5016467;28;20184;-73
2021/05/21 07:30:10;;;;;;;1.95;1.45;;;;;;;;;;5024156;28;20753;-73
2021/05/21 07:32:36;;;;;;;2.65;1.50;;;;;;;;;;5016831;28;20314;-73
2021/05/21 07:35:03;;;;;;;1.50;1.40;;;;;;;;;;5029787;28;20231;-73
2021/05/21 07:37:29;;;;;;;3.00;1.60;;;;;;;;;;5025149;28;20177;-73
2021/05/21 07:39:55;;;;;;;1.75;1.63;;;;;;;;;;5028029;28;20269;-73
2021/05/21 07:42:21;;;;;;;2.22;1.40;;;;;;;;;;5026001;28;20188;-73
2021/05/21 07:44:47;;;;;;;3.85;1.27;;;;;;;;;;5024680;28;20590;-73
2021/05/21 07:47:13;;;;;;;2.28;1.35;;;;;;;;;;5022586;28;20268;-73
2021/05/21 07:49:39;;;;;;;4.13;1.33;;;;;;;;;;5027875;28;21380;-73
2021/05/21 07:52:06;;;;;;;1.52;1.27;;;;;;;;;;5021368;28;20192;-73
2021/05/21 07:54:33;;;;;;;2.85;1.70;;;;;;;;;;5021447;28;20256;-73
2021/05/21 07:56:59;;;;;;;2.03;1.67;;;;;;;;;;5025541;28;20196;-73
2021/05/21 07:59:25;;;;;;;2.95;1.50;;;;;;;;;;5018404;28;20246;-73
2021/05/21 08:01:51;;;;;;;2.80;1.52;;;;;;;;;;5020044;28;20196;-73
2021/05/21 08:04:17;;;;;;;2.70;1.58;;;;;;;;;;5025084;28;20189;-73
2021/05/21 08:06:43;;;;;;;2.28;1.27;;;;;;;;;;5023221;28;20209;-73
2021/05/21 08:09:09;;;;;;;2.05;1.40;;;;;;;;;;5024515;28;20230;-73
2021/05/21 08:11:36;;;;;;;1.77;1.25;;;;;;;;;;5019758;28;20657;-73
2021/05/21 08:14:02;;;;;;;3.53;1.42;;;;;;;;;;5027327;28;20294;-72
2021/05/21 08:16:28;;;;;;;2.72;1.50;;;;;;;;;;5027900;28;20183;-73
2021/05/21 08:18:56;;;;;;;2.58;1.20;;;;;;;;;;5029701;28;20249;-72
2021/05/21 08:21:22;;;;;;;2.83;1.30;;;;;;;;;;5021002;28;20204;-72
2021/05/21 08:23:48;;;;;;;4.55;1.50;;;;;;;;;;5027490;28;20219;-72
2021/05/21 08:26:14;;;;;;;2.22;1.48;;;;;;;;;;5020726;28;20613;-72
2021/05/21 08:28:42;;;;;;;3.92;1.52;;;;;;;;;;5024651;28;20191;-73
2021/05/21 08:31:08;;;;;;;3.85;1.50;;;;;;;;;;5022543;28;20281;-73
2021/05/21 08:33:39;;;;;;;4.60;1.50;;;;;;;;;;5022069;28;20206;-72
2021/05/21 08:36:07;;;;;;;2.33;1.88;;;;;;;;;;5026258;28;20211;-73
2021/05/21 08:38:32;;;;;;;3.03;1.60;;;;;;;;;;5024215;28;20180;-72
2021/05/21 08:40:59;;;;;;;1.83;1.30;;;;;;;;;;5024291;28;20198;-73
2021/05/21 08:43:25;;;;;;;2.55;1.48;;;;;;;;;;5020188;28;20398;-73
2021/05/21 08:45:51;;;;;;;2.65;1.33;;;;;;;;;;5023139;28;20227;-74
2021/05/21 08:48:18;;;;;;;2.50;1.25;;;;;;;;;;5022137;28;20189;-72
2021/05/21 08:50:44;;;;;;;2.03;1.33;;;;;;;;;;5030206;28;20283;-73
2021/05/21 08:53:11;;;;;;;2.95;1.38;;;;;;;;;;5026159;28;20263;-73
2021/05/21 08:55:37;;;;;;;1.67;1.30;;;;;;;;;;5029213;28;20185;-73
2021/05/21 08:58:03;;;;;;;2.15;1.30;;;;;;;;;;5025782;28;20184;-73
2021/05/21 09:00:29;;;;;;;3.72;1.25;;;;;;;;;;5028964;28;20211;-72
2021/05/21 09:02:55;;;;;;;2.85;1.10;;;;;;;;;;5023990;28;20188;-73
2021/05/21 09:05:21;;;;;;;3.33;1.40;;;;;;;;;;5023859;28;20187;-73
2021/05/21 09:07:47;;;;;;;3.03;1.20;;;;;;;;;;5024677;28;20275;-73
2021/05/21 09:10:17;;;;;;;1.88;1.38;;;;;;;;;;5032107;28;20317;-72
2021/05/21 09:12:48;;;;;;;3.38;1.58;;;;;;;;;;5027486;28;20180;-73
2021/05/21 09:15:18;;;;;;;2.38;1.35;;;;;;;;;;5025702;28;20184;-73
2021/05/21 09:17:53;;;;;;;2.58;1.20;;;;;;;;;;5023688;28;20184;-74
2021/05/21 09:20:26;;;;;;;2.05;1.20;;;;;;;;;;5024594;28;20208;-74
2021/05/21 09:22:59;;;;;;;2.60;1.30;;;;;;;;;;5024714;28;20184;-74
2021/05/21 09:25:40;;;;;;;2.33;1.20;;;;;;;;;;5026017;28;20185;-74
2021/05/21 09:28:07;;;;;;;2.22;1.20;;;;;;;;;;5028652;28;20207;-75
2021/05/21 09:30:33;;;;;;;2.63;1.20;;;;;;;;;;5023714;28;20212;-72
2021/05/21 09:33:03;;;;;;;4.53;1.30;;;;;;;;;;5028878;28;20613;-74
2021/05/21 09:35:29;;;;;;;3.67;1.48;;;;;;;;;;5027276;28;20188;-73
2021/05/21 09:37:56;;;;;;;2.40;1.40;;;;;;;;;;5030920;28;20276;-75
2021/05/21 09:40:26;;;;;;;3.20;1.10;;;;;;;;;;5027863;28;20199;-74
2021/05/21 09:42:55;;;;;;;1.35;1.10;;;;;;;;;;5023995;28;20825;-74
2021/05/21 09:45:29;;;;;;;2.67;1.20;;;;;;;;;;5021003;28;20638;-74
2021/05/21 09:48:08;;;;;;;1.10;1.02;;;;;;;;;;5023988;28;20188;-74
2021/05/21 09:50:38;;;;;;;1.27;0.98;;;;;;;;;;5024636;28;20228;-74
2021/05/21 09:53:06;;;;;;;1.10;1.00;;;;;;;;;;5027351;28;20219;-75
2021/05/21 09:55:37;;;;;;;5.13;1.20;;;;;;;;;;5020961;28;20196;-74
2021/05/21 09:58:03;;;;;;;1.40;1.20;;;;;;;;;;5023083;28;20260;-74
2021/05/21 10:00:29;;;;;;;2.78;1.25;;;;;;;;;;5021871;28;20205;-74
2021/05/21 10:02:56;;;;;;;1.00;1.00;;;;;;;;;;5024458;28;20183;-73
2021/05/21 10:05:23;;;;;;;1.35;1.00;;;;;;;;;;5030000;28;20208;-74
2021/05/21 10:07:52;;;;;;;2.33;1.20;;;;;;;;;;5032447;28;20180;-75
2021/05/21 10:10:18;;;;;;;2.33;1.20;;;;;;;;;;5026174;28;20262;-74
2021/05/21 10:12:44;;;;;;;1.48;1.23;;;;;;;;;;5021544;28;20216;-75
2021/05/21 10:15:11;;;;;;;2.55;1.27;;;;;;;;;;5026349;28;20184;-74
2021/05/21 10:17:39;;;;;;;1.77;1.30;;;;;;;;;;5025904;28;20180;-74
2021/05/21 10:20:05;;;;;;;1.50;1.40;;;;;;;;;;5025105;28;20266;-74
2021/05/21 10:22:37;;;;;;;1.00;1.00;;;;;;;;;;5023859;28;20180;-74
2021/05/21 10:25:09;;;;;;;2.80;1.42;;;;;;;;;;5027065;28;20565;-74
2021/05/21 10:27:37;;;;;;;3.38;1.60;;;;;;;;;;5022886;28;20631;-74
2021/05/21 10:30:07;;;;;;;2.17;1.30;;;;;;;;;;5019979;28;20204;-74
2021/05/21 10:32:35;;;;;;;3.17;1.30;;;;;;;;;;5028139;28;20690;-74
2021/05/21 10:35:13;;;;;;;3.40;1.48;;;;;;;;;;5025512;28;20231;-74
2021/05/21 10:37:39;;;;;;;5.55;1.10;;;;;;;;;;5022483;28;20182;-74
2021/05/21 10:40:22;;;;;;;1.10;1.10;;;;;;;;;;5027693;28;20679;-74
2021/05/21 10:42:48;;;;;;;7.50;3.22;;;;;;;;;;5027534;28;20180;-75
2021/05/21 10:45:21;;;;;;;6.97;2.47;;;;;;;;;;5019972;28;20246;-75
2021/05/21 10:47:56;;;;;;;2.67;1.60;;;;;;;;;;5012990;28;20692;-75
2021/05/21 10:50:22;;;;;;;1.40;1.27;;;;;;;;;;5029192;28;20199;-75
2021/05/21 10:52:57;;;;;;;1.13;1.02;;;;;;;;;;5027614;28;20188;-75
2021/05/21 10:55:38;;;;;;;2.03;1.25;;;;;;;;;;5024384;28;20187;-75
2021/05/21 10:58:04;;;;;;;1.15;1.05;;;;;;;;;;5023197;28;20184;-75
2021/05/21 11:00:31;;;;;;;2.55;1.13;;;;;;;;;;5028869;28;20301;-75
2021/05/21 11:02:57;;;;;;;1.73;1.20;;;;;;;;;;5023985;28;20184;-74
2021/05/21 11:05:34;;;;;;;2.47;1.20;;;;;;;;;;5018810;28;20188;-75
2021/05/21 11:08:08;;;;;;;1.58;1.08;;;;;;;;;;5023547;28;20667;-75
2021/05/21 11:10:34;;;;;;;0.70;0.70;;;;;;;;;;5021775;28;20220;-75
2021/05/21 11:13:01;;;;;;;2.13;1.00;;;;;;;;;;5017364;28;20200;-74
2021/05/21 11:15:53;;;;;;;1.30;1.13;;;;;;;;;;5018836;28;20272;-74
2021/05/21 11:18:19;;;;;;;1.35;1.20;;;;;;;;;;5021441;28;20261;-76
2021/05/21 11:20:54;;;;;;;1.33;1.10;;;;;;;;;;5026036;28;20201;-74
2021/05/21 11:23:26;;;;;;;3.92;1.50;;;;;;;;;;5017610;28;21045;-74
2021/05/21 11:26:02;;;;;;;1.48;1.38;;;;;;;;;;5024399;28;20263;-74
2021/05/21 11:28:29;;;;;;;3.55;1.23;;;;;;;;;;5020337;28;20195;-74
2021/05/21 11:30:55;;;;;;;1.30;1.10;;;;;;;;;;5025035;28;20243;-74
2021/05/21 11:33:21;;;;;;;2.13;1.15;;;;;;;;;;5025875;28;20242;-74
2021/05/21 11:35:55;;;;;;;2.83;1.30;;;;;;;;;;5025372;28;20278;-75
2021/05/21 11:38:27;;;;;;;4.05;1.20;;;;;;;;;;5022659;28;20286;-74
2021/05/21 11:40:54;;;;;;;0.90;0.90;;;;;;;;;;5022946;28;20846;-74
2021/05/21 11:43:26;;;;;;;1.30;1.20;;;;;;;;;;5018164;28;20277;-74
2021/05/21 11:45:56;;;;;;;2.35;1.25;;;;;;;;;;5025374;28;20205;-73
2021/05/21 11:48:38;;;;;;;1.05;1.02;;;;;;;;;;5017681;28;20196;-74
2021/05/21 11:51:09;;;;;;;3.42;2.03;;;;;;;;;;5024982;28;20505;-73
2021/05/21 11:54:02;;;;;;;1.27;1.10;;;;;;;;;;5023756;28;20206;-74
2021/05/21 11:56:28;;;;;;;1.15;0.98;;;;;;;;;;5018758;28;20192;-74
2021/05/21 11:58:57;;;;;;;1.58;0.90;;;;;;;;;;5019644;28;20991;-73
2021/05/21 12:01:23;;;;;;;2.28;1.10;;;;;;;;;;5019017;28;20745;-73
2021/05/21 12:03:49;;;;;;;1.90;1.15;;;;;;;;;;5020769;28;20184;-73
2021/05/21 12:06:15;;;;;;;1.60;1.20;;;;;;;;;;5017824;28;20192;-74
2021/05/21 12:08:46;;;;;;;1.10;1.00;;;;;;;;;;5021083;28;20184;-73
2021/05/21 12:11:13;;;;;;;1.88;1.10;;;;;;;;;;5022695;28;20200;-74
2021/05/21 12:13:39;;;;;;;2.50;1.30;;;;;;;;;;5020756;28;20203;-74
2021/05/21 12:16:24;;;;;;;2.67;1.20;;;;;;;;;;5020144;28;20228;-74
2021/05/21 12:18:50;;;;;;;2.40;0.98;;;;;;;;;;5022299;28;20265;-74
2021/05/21 12:21:21;;;;;;;2.53;1.38;;;;;;;;;;5019879;28;20935;-74
2021/05/21 12:23:50;;;;;;;1.70;1.20;;;;;;;;;;5011550;28;20303;-74
2021/05/21 12:26:18;;;;;;;2.72;0.95;;;;;;;;;;5018575;28;20659;-75
2021/05/21 12:28:44;;;;;;;4.15;1.20;;;;;;;;;;5022119;28;20894;-74
2021/05/21 12:31:11;;;;;;;3.05;1.30;;;;;;;;;;5023340;28;20212;-75
2021/05/21 12:33:40;;;;;;;2.67;1.00;;;;;;;;;;5024897;28;20794;-75
2021/05/21 12:36:07;;;;;;;1.98;1.00;;;;;;;;;;5022947;28;20258;-74
2021/05/21 12:38:34;;;;;;;1.30;1.20;;;;;;;;;;5020405;28;20592;-74
2021/05/21 12:41:00;;;;;;;1.20;1.10;;;;;;;;;;5018407;28;20570;-74
2021/05/21 12:43:27;;;;;;;1.17;1.08;;;;;;;;;;5024223;28;20624;-73
2021/05/21 12:45:54;;;;;;;1.30;1.20;;;;;;;;;;5020308;28;20628;-75
2021/05/21 12:48:20;;;;;;;3.33;1.40;;;;;;;;;;5021556;28;20237;-73
2021/05/21 12:50:46;;;;;;;1.60;1.30;;;;;;;;;;5025005;28;20208;-74
2021/05/21 12:53:13;;;;;;;1.15;0.88;;;;;;;;;;5023063;28;20560;-73
2021/05/21 12:55:46;;;;;;;2.03;1.40;;;;;;;;;;5023319;28;20207;-72
2021/05/21 12:58:16;;;;;;;3.00;1.30;;;;;;;;;;5023984;28;20682;-72
2021/05/21 13:00:42;;;;;;;1.02;0.98;;;;;;;;;;5023141;28;20213;-74
2021/05/21 13:03:09;;;;;;;1.88;1.10;;;;;;;;;;5019476;28;20636;-73
2021/05/21 13:05:40;;;;;;;1.33;1.23;;;;;;;;;;5024278;28;20664;-73
2021/05/21 13:08:06;;;;;;;1.70;1.50;;;;;;;;;;5017111;28;20188;-73
2021/05/21 13:10:39;;;;;;;1.98;1.20;;;;;;;;;;5026224;28;20605;-74
2021/05/21 13:13:05;;;;;;;1.48;1.20;;;;;;;;;;5028328;28;20211;-73
2021/05/21 13:15:31;;;;;;;2.42;1.27;;;;;;;;;;5025585;28;20551;-72
2021/05/21 13:18:00;;;;;;;1.02;0.93;;;;;;;;;;5025566;28;20311;-72
2021/05/21 13:20:31;;;;;;;1.40;1.25;;;;;;;;;;5027561;28;20192;-73
2021/05/21 13:23:02;;;;;;;1.42;1.23;;;;;;;;;;5023802;28;20266;-73
2021/05/21 13:25:31;;;;;;;4.70;1.30;;;;;;;;;;5026336;28;20275;-71
2021/05/21 13:28:04;;;;;;;1.63;1.20;;;;;;;;;;5025060;28;20177;-72
2021/05/21 13:30:31;;;;;;;1.88;1.45;;;;;;;;;;5022494;28;20255;-73
2021/05/21 13:32:58;;;;;;;1.58;1.40;;;;;;;;;;5021862;28;20763;-72
2021/05/21 13:35:25;;;;;;;12.18;1.30;;;;;;;;;;5013888;28;20284;-73
2021/05/21 13:37:51;;;;;;;3.55;1.40;;;;;;;;;;5029369;28;20200;-72
2021/05/21 13:40:18;;;;;;;1.08;0.98;;;;;;;;;;5030133;28;20296;-72
2021/05/21 13:42:44;;;;;;;4.43;1.27;;;;;;;;;;5025392;28;20177;-73
2021/05/21 13:45:10;;;;;;;1.52;1.30;;;;;;;;;;5025381;28;20193;-75
2021/05/21 13:47:37;;;;;;;2.15;1.17;;;;;;;;;;5024934;28;20581;-74
2021/05/21 13:50:06;;;;;;;1.73;1.10;;;;;;;;;;5019871;28;20407;-75
2021/05/21 13:52:32;;;;;;;1.35;1.25;;;;;;;;;;5024906;28;20227;-71
2021/05/21 13:54:58;;;;;;;1.40;1.10;;;;;;;;;;5023187;28;20204;-74
2021/05/21 13:57:25;;;;;;;2.17;1.00;;;;;;;;;;5022999;28;20192;-74
2021/05/21 13:59:51;;;;;;;1.30;1.20;;;;;;;;;;5021405;28;20200;-74
2021/05/21 14:02:17;;;;;;;1.00;1.00;;;;;;;;;;5024330;28;20195;-74
2021/05/21 14:04:43;;;;;;;1.35;1.20;;;;;;;;;;5030198;28;20192;-73
2021/05/21 14:07:09;;;;;;;1.45;1.02;;;;;;;;;;5022927;28;20554;-74
2021/05/21 14:09:35;;;;;;;1.95;1.13;;;;;;;;;;5021487;28;20239;-72
2021/05/21 14:12:01;;;;;;;1.23;1.13;;;;;;;;;;5025944;28;20188;-72
2021/05/21 14:14:27;;;;;;;2.25;1.27;;;;;;;;;;5020586;28;20560;-72
2021/05/21 14:16:54;;;;;;;1.20;1.08;;;;;;;;;;5023005;28;20261;-75
2021/05/21 14:19:20;;;;;;;1.90;0.95;;;;;;;;;;5021961;28;20221;-75
2021/05/21 14:21:47;;;;;;;1.85;1.38;;;;;;;;;;5018441;28;20204;-72
2021/05/21 14:24:14;;;;;;;2.72;1.10;;;;;;;;;;5025077;28;20743;-73
2021/05/21 14:26:41;;;;;;;1.33;1.23;;;;;;;;;;5021580;28;20200;-74
2021/05/21 14:29:09;;;;;;;1.42;1.08;;;;;;;;;;5025307;28;20562;-73
2021/05/21 14:31:40;;;;;;;1.55;1.10;;;;;;;;;;5020472;28;20794;-73
2021/05/21 14:34:09;;;;;;;1.17;1.08;;;;;;;;;;5024743;28;20778;-70
2021/05/21 14:36:35;;;;;;;1.17;1.08;;;;;;;;;;5027884;28;20561;-73
2021/05/21 14:39:01;;;;;;;2.17;1.10;;;;;;;;;;5021309;28;20180;-71
2021/05/21 14:41:27;;;;;;;1.70;1.30;;;;;;;;;;5024987;28;20243;-71
2021/05/21 14:43:54;;;;;;;2.50;1.20;;;;;;;;;;5027104;28;20204;-72